KRKW/RKW METAR and TAF weather

Enter ICAO airport designator
Station Type Date Time Source
KRKW METAR 2021/06/21 23:30 UTC NOAA

KRKW 212330Z AUTO 32012G24KT 280V340 9SM FEW025 BKN033 OVC043 22/20 A2989 RMK A01


Station Type Date Time Source
KRKW Decoded METAR 2021/06/21 23:30 UTC NOAA

Station name not available
Jun 21, 2021 - 07:30 PM EDT / 2021.06.21 2330 UTC
Wind: from the NW (320 degrees) at 14 MPH (12 KT) gusting to 28 MPH (24 KT) (direction variable):0
Visibility: 9 mile(s):0
Sky conditions: overcast
Temperature: 71 F (22 C)
Dew Point: 68 F (20 C)
Relative Humidity: 88%
Pressure (altimeter): 29.89 in. Hg (1012 hPa)
ob: KRKW 212330Z AUTO 32012G24KT 280V340 9SM FEW025 BKN033 OVC043 22/20 A2989 RMK A01
cycle: 23

Station Type Date Time Source
KRKW TAF 2009/08/31 19:50 UTC NOAA

METAR KRKW 311950Z AUTO VRB05KT 10SM CLR 25/13 A3010
RMK AO1 T02500133 $

Example: see airport list